Time;durP1;ratioP1;P1;durP2;ratioP2;P2;SDS_P1;SDS_P2;PMS_P1;PMS_P2;Temp;Humidity;BMP_temperature;BMP_pressure;BME280_temperature;BME280_humidity;BME280_pressure;Samples;Min_cycle;Max_cycle;Signal;HPM_P1;HPM_P2
2022/10/06 00:02:39;;;;;;;9.07;2.37;;;19.10;99.90;;;;;;7893465;73;26245;-57
2022/10/06 00:12:47;;;;;;;8.47;2.07;;;19.10;99.90;;;;;;7782401;75;26301;-55
2022/10/06 00:22:50;;;;;;;6.67;2.23;;;19.10;99.90;;;;;;7796465;74;26620;-53
2022/10/06 00:32:56;;;;;;;11.77;3.20;;;19.10;99.90;;;;;;7902260;74;26269;-53
2022/10/06 00:43:01;;;;;;;7.20;2.30;;;19.20;99.90;;;;;;7890835;74;26241;-56
2022/10/06 00:53:05;;;;;;;17.60;3.30;;;19.20;99.90;;;;;;7917496;74;26297;-58
2022/10/06 01:03:11;;;;;;;16.90;3.10;;;19.20;99.90;;;;;;7937017;74;26735;-57
2022/10/06 01:13:14;;;;;;;8.33;2.70;;;19.20;99.90;;;;;;7922476;74;26241;-54
2022/10/06 01:23:18;;;;;;;9.13;2.40;;;19.20;99.90;;;;;;7928508;74;26247;-57
2022/10/06 01:33:22;;;;;;;10.93;2.80;;;19.10;99.90;;;;;;7857134;74;26276;-55
2022/10/06 01:43:24;;;;;;;11.93;2.17;;;19.10;99.90;;;;;;7839234;74;26270;-56
2022/10/06 01:53:27;;;;;;;10.53;2.73;;;19.10;99.90;;;;;;7809059;75;26261;-54
2022/10/06 02:03:29;;;;;;;10.07;2.40;;;19.10;99.90;;;;;;7803291;74;26292;-57
2022/10/06 02:13:32;;;;;;;8.80;2.17;;;19.10;99.90;;;;;;7892185;73;27236;-56
2022/10/06 02:23:34;;;;;;;3.87;1.70;;;19.10;99.90;;;;;;7865085;75;26223;-55
2022/10/06 02:33:37;;;;;;;4.67;1.83;;;19.00;99.90;;;;;;7854378;74;26258;-54
2022/10/06 02:43:40;;;;;;;8.43;1.70;;;19.00;99.90;;;;;;7941215;74;26238;-52
2022/10/06 02:53:44;;;;;;;7.57;1.93;;;19.00;99.90;;;;;;7936579;74;26261;-52
2022/10/06 03:03:47;;;;;;;6.20;1.50;;;19.00;99.90;;;;;;7934096;74;26288;-55
2022/10/06 03:13:50;;;;;;;4.23;1.20;;;19.00;99.90;;;;;;7884761;73;26330;-57
2022/10/06 03:23:55;;;;;;;14.57;3.50;;;18.90;99.90;;;;;;7774621;75;26249;-56
2022/10/06 03:33:57;;;;;;;6.43;1.93;;;18.90;99.90;;;;;;7888609;73;26358;-52
2022/10/06 03:44:00;;;;;;;4.80;2.23;;;18.90;99.90;;;;;;7791553;75;26317;-52
2022/10/06 03:54:03;;;;;;;6.87;3.00;;;18.90;99.90;;;;;;7869405;75;26322;-55
2022/10/06 04:04:07;;;;;;;8.20;1.57;;;18.90;99.90;;;;;;7896125;74;26230;-54
2022/10/06 04:14:12;;;;;;;5.97;1.73;;;18.90;99.90;;;;;;7940808;73;26262;-56
2022/10/06 04:24:19;;;;;;;5.40;1.70;;;18.90;99.90;;;;;;7956473;74;26264;-55
2022/10/06 04:34:19;;;;;;;6.30;2.10;;;18.80;99.90;;;;;;7873854;73;26764;-53
2022/10/06 04:44:22;;;;;;;6.53;1.27;;;18.80;99.90;;;;;;7800803;75;26241;-54
2022/10/06 04:54:24;;;;;;;4.87;1.43;;;18.70;99.90;;;;;;7773424;75;26743;-56
2022/10/06 05:04:27;;;;;;;3.53;1.17;;;18.80;99.90;;;;;;7827429;74;26311;-57
2022/10/06 05:14:32;;;;;;;5.23;1.33;;;18.70;99.90;;;;;;7734677;74;26280;-53
2022/10/06 05:24:33;;;;;;;3.77;1.60;;;18.60;99.90;;;;;;7818384;74;26230;-56
2022/10/06 05:34:36;;;;;;;6.03;1.37;;;18.60;99.90;;;;;;7924863;73;26362;-55
2022/10/06 05:44:39;;;;;;;4.73;1.57;;;18.60;99.90;;;;;;7885545;74;26403;-55
2022/10/06 05:54:41;;;;;;;7.30;1.77;;;18.60;99.90;;;;;;7819562;75;26319;-55
2022/10/06 06:04:44;;;;;;;7.73;1.57;;;18.60;99.90;;;;;;7805147;74;26229;-58
2022/10/06 06:25:07;;;;;;;7.80;2.63;;;18.80;99.90;;;;;;7868789;74;26305;-53
2022/10/06 06:35:10;;;;;;;4.80;1.97;;;18.80;99.90;;;;;;7854072;74;26256;-56
2022/10/06 06:45:13;;;;;;;7.93;2.93;;;18.70;99.90;;;;;;7822956;74;26732;-54
2022/10/06 06:55:16;;;;;;;24.00;4.63;;;18.80;99.90;;;;;;7836850;74;26254;-57
2022/10/06 07:05:18;;;;;;;16.30;3.53;;;18.80;99.90;;;;;;7835310;73;26299;-60
2022/10/06 07:25:41;;;;;;;22.10;5.33;;;18.80;99.90;;;;;;7801903;75;27080;-58
2022/10/06 07:35:44;;;;;;;10.13;2.97;;;18.80;99.90;;;;;;7855478;74;26241;-59
2022/10/06 07:45:48;;;;;;;11.27;2.83;;;18.90;99.90;;;;;;7947840;74;26293;-58
2022/10/06 07:55:50;;;;;;;20.30;2.87;;;19.00;99.90;;;;;;7957193;74;26219;-59
2022/10/06 08:06:01;;;;;;;9.13;2.57;;;19.10;99.90;;;;;;7906204;74;26646;-58
2022/10/06 08:16:09;;;;;;;11.80;2.57;;;19.40;99.90;;;;;;7937347;74;26370;-56
2022/10/06 08:26:13;;;;;;;18.50;3.40;;;19.60;99.90;;;;;;7925359;74;26214;-57
2022/10/06 08:36:18;;;;;;;9.70;2.67;;;19.80;99.90;;;;;;7914177;74;26270;-59
2022/10/06 08:46:23;;;;;;;14.50;3.13;;;20.00;99.90;;;;;;7839620;73;26230;-57
2022/10/06 08:56:38;;;;;;;16.73;2.67;;;20.10;99.90;;;;;;7845544;74;26955;-57
2022/10/06 09:06:52;;;;;;;17.60;2.90;;;20.20;99.90;;;;;;7870900;74;26754;-54
2022/10/06 09:16:59;;;;;;;15.77;3.00;;;20.30;99.90;;;;;;7853472;74;26345;-57
2022/10/06 09:27:04;;;;;;;18.13;3.57;;;20.40;99.90;;;;;;7868666;74;26807;-56
2022/10/06 09:37:09;;;;;;;16.90;3.13;;;20.60;99.90;;;;;;7863625;74;26235;-58
2022/10/06 09:47:33;;;;;;;15.13;3.07;;;20.60;99.90;;;;;;7868061;74;26759;-58
2022/10/06 09:57:36;;;;;;;18.20;2.87;;;20.60;99.90;;;;;;7895522;74;26283;-56
2022/10/06 10:07:38;;;;;;;11.27;2.93;;;20.70;99.90;;;;;;7826495;74;26241;-58
2022/10/06 10:17:56;;;;;;;14.67;2.67;;;20.70;99.90;;;;;;7898751;74;26223;-56
2022/10/06 10:28:32;;;;;;;10.60;2.33;;;20.80;99.90;;;;;;7858407;73;26238;-56
2022/10/06 10:38:39;;;;;;;8.07;2.17;;;20.80;99.90;;;;;;7809873;74;26257;-57
2022/10/06 10:48:50;;;;;;;11.97;3.20;;;20.80;99.90;;;;;;7865196;74;26759;-58
2022/10/06 10:58:56;;;;;;;12.07;3.20;;;20.80;99.90;;;;;;7862891;74;26239;-57
2022/10/06 11:09:04;;;;;;;10.63;2.43;;;20.70;99.90;;;;;;7843163;73;26237;-55
2022/10/06 11:19:13;;;;;;;9.53;2.57;;;20.70;99.90;;;;;;7843129;74;27191;-57
2022/10/06 11:29:28;;;;;;;9.20;2.50;;;20.60;99.90;;;;;;7892979;74;26278;-57
2022/10/06 11:39:42;;;;;;;9.03;2.37;;;20.60;99.90;;;;;;7849935;74;26710;-55
2022/10/06 11:49:54;;;;;;;5.97;2.20;;;20.60;99.90;;;;;;7834590;74;26679;-58
2022/10/06 11:59:56;;;;;;;9.27;2.00;;;20.60;99.90;;;;;;7878761;74;26994;-58
2022/10/06 12:10:25;;;;;;;8.67;1.97;;;20.40;99.90;;;;;;7870464;73;26254;-56
2022/10/06 12:20:47;;;;;;;6.00;1.80;;;20.40;99.90;;;;;;7818122;74;26391;-57
2022/10/06 12:31:13;;;;;;;10.13;2.13;;;20.40;99.90;;;;;;7877347;74;26239;-57
2022/10/06 12:41:18;;;;;;;6.97;1.93;;;20.30;99.70;;;;;;7877127;74;26905;-57
2022/10/06 12:51:24;;;;;;;7.17;1.93;;;20.30;99.90;;;;;;7922286;73;26426;-57
2022/10/06 13:01:27;;;;;;;7.70;1.80;;;20.30;99.90;;;;;;7870635;74;26222;-56
2022/10/06 13:11:29;;;;;;;5.60;1.63;;;20.30;99.90;;;;;;7909098;74;26351;-57
2022/10/06 13:21:34;;;;;;;5.77;1.80;;;20.30;99.90;;;;;;7868470;73;26202;-58
2022/10/06 13:31:37;;;;;;;8.43;2.17;;;20.30;99.90;;;;;;7864480;74;26222;-59
2022/10/06 13:41:54;;;;;;;9.27;1.93;;;20.20;99.90;;;;;;7892886;74;26296;-58
2022/10/06 13:52:04;;;;;;;9.73;2.23;;;20.30;99.90;;;;;;7851189;74;26772;-57
2022/10/06 14:02:21;;;;;;;14.90;1.80;;;20.20;99.90;;;;;;7811272;73;26228;-55
2022/10/06 14:12:24;;;;;;;11.63;2.43;;;20.20;99.90;;;;;;7878080;74;26276;-56
2022/10/06 14:22:37;;;;;;;10.83;2.70;;;20.10;99.90;;;;;;7888516;74;26273;-57
2022/10/06 14:32:39;;;;;;;5.73;1.80;;;20.20;99.90;;;;;;7940605;74;26256;-55
2022/10/06 14:42:42;;;;;;;6.27;1.50;;;20.10;99.90;;;;;;7826309;74;26833;-55
2022/10/06 14:52:44;;;;;;;7.20;1.77;;;20.10;99.90;;;;;;7854163;73;26241;-57
2022/10/06 15:02:47;;;;;;;5.13;1.53;;;20.10;99.90;;;;;;7875583;74;26654;-57
2022/10/06 15:12:53;;;;;;;5.27;1.43;;;20.10;99.90;;;;;;7866762;73;26327;-56
2022/10/06 15:22:55;;;;;;;5.50;1.37;;;20.00;99.90;;;;;;7847191;74;26261;-57
2022/10/06 15:33:02;;;;;;;5.57;1.50;;;20.00;99.90;;;;;;7867820;74;26257;-56
2022/10/06 15:43:02;;;;;;;6.77;1.87;;;20.00;99.90;;;;;;7851620;74;26242;-58
2022/10/06 15:53:04;;;;;;;5.00;1.43;;;20.00;99.90;;;;;;7857751;73;26300;-56
2022/10/06 16:03:22;;;;;;;8.03;1.50;;;20.00;99.90;;;;;;7856016;74;26312;-56
2022/10/06 16:13:11;;;;;;;7.90;1.63;;;19.90;99.90;;;;;;7919983;74;26223;-56
2022/10/06 16:23:14;;;;;;;10.93;1.70;;;19.90;99.90;;;;;;7894740;74;26242;-56
2022/10/06 16:33:16;;;;;;;12.03;3.40;;;19.80;99.90;;;;;;7889352;73;26237;-57
2022/10/06 16:43:19;;;;;;;963.13;414.53;;;19.80;99.90;;;;;;7875507;73;26744;-55
2022/10/06 16:53:21;;;;;;;841.83;373.40;;;19.80;99.90;;;;;;7869152;74;26250;-55
2022/10/06 17:03:24;;;;;;;514.13;201.90;;;19.70;99.90;;;;;;7857675;73;26289;-55
2022/10/06 17:13:27;;;;;;;575.03;241.03;;;19.60;99.90;;;;;;7903111;74;26256;-58
2022/10/06 17:23:30;;;;;;;428.50;153.27;;;19.60;99.90;;;;;;7888557;73;26215;-57
2022/10/06 17:33:35;;;;;;;488.40;187.93;;;19.60;99.90;;;;;;7868722;74;26285;-55
2022/10/06 17:43:40;;;;;;;283.23;98.43;;;19.60;99.90;;;;;;7880301;74;26311;-56
2022/10/06 17:53:45;;;;;;;156.17;54.67;;;19.60;99.90;;;;;;7822221;73;26242;-56
2022/10/06 18:03:48;;;;;;;155.57;55.17;;;19.50;99.90;;;;;;7869709;74;26984;-54
2022/10/06 18:13:51;;;;;;;110.40;38.10;;;19.40;99.90;;;;;;7845381;74;26352;-54
2022/10/06 18:23:54;;;;;;;123.97;41.10;;;19.30;99.90;;;;;;7852510;74;26278;-57
2022/10/06 18:33:58;;;;;;;94.87;35.20;;;19.30;99.90;;;;;;7896171;73;26514;-58
2022/10/06 18:44:03;;;;;;;55.47;19.87;;;19.20;99.90;;;;;;7869599;73;26342;-58
2022/10/06 18:54:08;;;;;;;34.27;13.33;;;19.20;99.90;;;;;;7917488;74;26229;-53
2022/10/06 19:04:17;;;;;;;40.80;14.27;;;18.90;99.90;;;;;;7869576;74;26318;-57
2022/10/06 19:14:33;;;;;;;40.47;13.73;;;18.90;99.90;;;;;;7854163;73;26256;-58
2022/10/06 19:24:38;;;;;;;42.73;12.83;;;18.90;99.90;;;;;;7838287;73;26266;-55
2022/10/06 19:34:41;;;;;;;27.27;11.27;;;18.90;99.90;;;;;;7859057;74;26335;-58
2022/10/06 19:44:44;;;;;;;30.70;10.13;;;18.40;99.90;;;;;;7847905;73;27491;-59
2022/10/06 19:54:46;;;;;;;32.20;10.47;;;18.60;99.90;;;;;;7862021;73;26358;-57
2022/10/06 20:04:49;;;;;;;19.90;8.87;;;18.60;99.90;;;;;;7887366;73;26719;-56
2022/10/06 20:14:52;;;;;;;23.20;7.83;;;18.50;99.90;;;;;;7849676;73;26339;-58
2022/10/06 20:24:54;;;;;;;26.30;7.57;;;18.40;99.90;;;;;;7831129;73;26333;-60
2022/10/06 20:34:57;;;;;;;21.10;7.50;;;18.40;99.90;;;;;;7865638;73;26809;-59
2022/10/06 20:44:59;;;;;;;22.43;8.20;;;18.20;99.90;;;;;;7846095;73;26409;-58
2022/10/06 20:55:05;;;;;;;20.60;8.17;;;18.30;99.90;;;;;;7880230;73;26260;-58
2022/10/06 21:05:07;;;;;;;16.03;5.03;;;18.30;99.90;;;;;;7836593;73;26304;-57
2022/10/06 21:15:10;;;;;;;13.83;5.73;;;18.30;99.90;;;;;;7858631;74;26998;-58
2022/10/06 21:25:12;;;;;;;11.60;4.77;;;18.20;99.90;;;;;;7860311;74;26294;-56
2022/10/06 21:35:15;;;;;;;11.37;4.90;;;18.10;99.90;;;;;;7863069;73;27077;-59
2022/10/06 21:45:17;;;;;;;15.73;5.10;;;18.10;99.90;;;;;;7816027;74;26308;-57
2022/10/06 21:55:20;;;;;;;13.03;4.83;;;18.00;99.90;;;;;;7841875;73;26312;-57
2022/10/06 22:05:22;;;;;;;10.30;3.70;;;18.00;99.90;;;;;;7834857;73;26339;-58
2022/10/06 22:15:25;;;;;;;8.60;3.80;;;18.00;99.90;;;;;;7848172;74;26249;-55
2022/10/06 22:25:27;;;;;;;9.90;3.87;;;17.40;99.90;;;;;;7877044;73;27045;-57
2022/10/06 22:35:30;;;;;;;12.57;3.80;;;17.50;99.90;;;;;;7876870;73;26336;-56
2022/10/06 22:45:32;;;;;;;11.07;3.67;;;17.70;99.90;;;;;;7858356;74;26238;-58
2022/10/06 22:55:35;;;;;;;7.23;2.90;;;17.70;99.90;;;;;;7828393;74;26789;-57
2022/10/06 23:05:38;;;;;;;9.90;3.30;;;17.70;99.90;;;;;;7882540;73;26244;-57
2022/10/06 23:15:41;;;;;;;9.20;3.23;;;17.60;99.90;;;;;;7939673;74;26313;-59
2022/10/06 23:25:44;;;;;;;8.63;2.60;;;17.60;99.90;;;;;;7907750;74;27106;-57
2022/10/06 23:36:01;;;;;;;10.43;2.83;;;17.60;99.90;;;;;;7869148;74;26331;-57
2022/10/06 23:46:04;;;;;;;7.50;2.93;;;17.40;99.90;;;;;;7838355;74;26323;-59
2022/10/06 23:56:07;;;;;;;6.70;2.47;;;17.50;99.90;;;;;;7811250;74;26340;-60
